sensor_id;sensor_type;location;lat;lon;timestamp;P1;durP1;ratioP1;P2;durP2;ratioP2
19396;SDS011;9834;48.076;11.878;2023-07-29T00:02:04;1.73;;;1.63;;
19396;SDS011;9834;48.076;11.878;2023-07-29T00:04:42;3.50;;;2.13;;
19396;SDS011;9834;48.076;11.878;2023-07-29T00:07:08;1.77;;;1.67;;
19396;SDS011;9834;48.076;11.878;2023-07-29T00:09:38;2.50;;;1.57;;
19396;SDS011;9834;48.076;11.878;2023-07-29T00:12:07;3.10;;;1.97;;
19396;SDS011;9834;48.076;11.878;2023-07-29T00:14:34;1.83;;;1.73;;
19396;SDS011;9834;48.076;11.878;2023-07-29T00:17:07;3.20;;;1.50;;
19396;SDS011;9834;48.076;11.878;2023-07-29T00:19:49;4.83;;;1.80;;
19396;SDS011;9834;48.076;11.878;2023-07-29T00:22:16;1.37;;;1.27;;
19396;SDS011;9834;48.076;11.878;2023-07-29T00:24:43;3.77;;;2.07;;
19396;SDS011;9834;48.076;11.878;2023-07-29T00:27:18;1.50;;;1.40;;
19396;SDS011;9834;48.076;11.878;2023-07-29T00:29:45;2.17;;;1.97;;
19396;SDS011;9834;48.076;11.878;2023-07-29T00:32:14;1.43;;;1.33;;
19396;SDS011;9834;48.076;11.878;2023-07-29T00:34:46;3.77;;;2.40;;
19396;SDS011;9834;48.076;11.878;2023-07-29T00:37:14;2.07;;;1.83;;
19396;SDS011;9834;48.076;11.878;2023-07-29T00:39:45;2.77;;;1.70;;
19396;SDS011;9834;48.076;11.878;2023-07-29T00:42:12;1.83;;;1.33;;
19396;SDS011;9834;48.076;11.878;2023-07-29T00:44:39;2.97;;;2.03;;
19396;SDS011;9834;48.076;11.878;2023-07-29T00:47:05;2.47;;;2.27;;
19396;SDS011;9834;48.076;11.878;2023-07-29T00:49:41;2.43;;;1.80;;
19396;SDS011;9834;48.076;11.878;2023-07-29T00:52:14;1.53;;;1.40;;
19396;SDS011;9834;48.076;11.878;2023-07-29T00:54:44;2.03;;;1.77;;
19396;SDS011;9834;48.076;11.878;2023-07-29T00:57:20;2.60;;;1.63;;
19396;SDS011;9834;48.076;11.878;2023-07-29T00:59:53;2.50;;;2.07;;
19396;SDS011;9834;48.076;11.878;2023-07-29T01:02:20;1.63;;;1.33;;
19396;SDS011;9834;48.076;11.878;2023-07-29T01:04:54;2.00;;;1.50;;
19396;SDS011;9834;48.076;11.878;2023-07-29T01:07:26;2.23;;;1.90;;
19396;SDS011;9834;48.076;11.878;2023-07-29T01:10:00;2.17;;;1.80;;
19396;SDS011;9834;48.076;11.878;2023-07-29T01:12:35;7.37;;;4.60;;
19396;SDS011;9834;48.076;11.878;2023-07-29T01:15:10;6.00;;;4.70;;
19396;SDS011;9834;48.076;11.878;2023-07-29T01:18:02;4.13;;;3.07;;
19396;SDS011;9834;48.076;11.878;2023-07-29T01:20:32;3.80;;;3.30;;
19396;SDS011;9834;48.076;11.878;2023-07-29T01:23:10;8.37;;;3.97;;
19396;SDS011;9834;48.076;11.878;2023-07-29T01:25:56;5.30;;;3.87;;
19396;SDS011;9834;48.076;11.878;2023-07-29T01:28:32;7.20;;;3.47;;
19396;SDS011;9834;48.076;11.878;2023-07-29T01:31:07;3.83;;;2.70;;
19396;SDS011;9834;48.076;11.878;2023-07-29T01:33:39;6.87;;;2.47;;
19396;SDS011;9834;48.076;11.878;2023-07-29T01:36:22;2.60;;;2.40;;
19396;SDS011;9834;48.076;11.878;2023-07-29T01:39:03;3.03;;;2.53;;
19396;SDS011;9834;48.076;11.878;2023-07-29T01:41:30;2.07;;;1.87;;
19396;SDS011;9834;48.076;11.878;2023-07-29T01:44:00;7.53;;;1.87;;
19396;SDS011;9834;48.076;11.878;2023-07-29T01:46:28;2.70;;;1.97;;
19396;SDS011;9834;48.076;11.878;2023-07-29T01:48:58;2.57;;;2.20;;
19396;SDS011;9834;48.076;11.878;2023-07-29T01:51:27;2.43;;;1.90;;
19396;SDS011;9834;48.076;11.878;2023-07-29T01:54:00;2.73;;;1.73;;
19396;SDS011;9834;48.076;11.878;2023-07-29T01:56:39;3.10;;;2.43;;
19396;SDS011;9834;48.076;11.878;2023-07-29T01:59:06;1.60;;;1.50;;
19396;SDS011;9834;48.076;11.878;2023-07-29T02:01:36;1.83;;;1.73;;
19396;SDS011;9834;48.076;11.878;2023-07-29T02:04:03;7.13;;;2.33;;
19396;SDS011;9834;48.076;11.878;2023-07-29T02:06:33;1.67;;;1.57;;
19396;SDS011;9834;48.076;11.878;2023-07-29T02:09:01;3.27;;;2.30;;
19396;SDS011;9834;48.076;11.878;2023-07-29T02:11:33;3.10;;;2.43;;
19396;SDS011;9834;48.076;11.878;2023-07-29T02:14:00;2.20;;;2.07;;
19396;SDS011;9834;48.076;11.878;2023-07-29T02:16:26;2.60;;;2.40;;
19396;SDS011;9834;48.076;11.878;2023-07-29T02:18:54;2.30;;;1.90;;
19396;SDS011;9834;48.076;11.878;2023-07-29T02:21:23;2.73;;;2.23;;
19396;SDS011;9834;48.076;11.878;2023-07-29T02:23:52;2.00;;;1.90;;
19396;SDS011;9834;48.076;11.878;2023-07-29T02:26:23;3.23;;;2.17;;
19396;SDS011;9834;48.076;11.878;2023-07-29T02:28:51;1.83;;;1.70;;
19396;SDS011;9834;48.076;11.878;2023-07-29T02:31:20;1.73;;;1.47;;
19396;SDS011;9834;48.076;11.878;2023-07-29T02:33:47;1.77;;;1.43;;
19396;SDS011;9834;48.076;11.878;2023-07-29T02:36:17;1.37;;;1.27;;
19396;SDS011;9834;48.076;11.878;2023-07-29T02:38:45;2.30;;;1.63;;
19396;SDS011;9834;48.076;11.878;2023-07-29T02:41:14;1.57;;;1.47;;
19396;SDS011;9834;48.076;11.878;2023-07-29T02:43:47;1.13;;;1.10;;
19396;SDS011;9834;48.076;11.878;2023-07-29T02:46:30;2.17;;;1.93;;
19396;SDS011;9834;48.076;11.878;2023-07-29T02:49:03;5.93;;;2.00;;
19396;SDS011;9834;48.076;11.878;2023-07-29T02:51:30;1.30;;;1.30;;
19396;SDS011;9834;48.076;11.878;2023-07-29T02:53:57;1.63;;;1.30;;
19396;SDS011;9834;48.076;11.878;2023-07-29T02:56:24;1.70;;;1.43;;
19396;SDS011;9834;48.076;11.878;2023-07-29T02:58:53;2.63;;;1.53;;
19396;SDS011;9834;48.076;11.878;2023-07-29T03:01:20;1.50;;;1.40;;
19396;SDS011;9834;48.076;11.878;2023-07-29T03:04:08;1.90;;;1.63;;
19396;SDS011;9834;48.076;11.878;2023-07-29T03:06:41;2.50;;;1.10;;
19396;SDS011;9834;48.076;11.878;2023-07-29T03:09:08;2.20;;;1.77;;
19396;SDS011;9834;48.076;11.878;2023-07-29T03:11:35;0.90;;;0.90;;
19396;SDS011;9834;48.076;11.878;2023-07-29T03:14:01;2.30;;;1.03;;
19396;SDS011;9834;48.076;11.878;2023-07-29T03:16:28;5.10;;;1.20;;
19396;SDS011;9834;48.076;11.878;2023-07-29T03:18:58;2.30;;;1.53;;
19396;SDS011;9834;48.076;11.878;2023-07-29T03:21:32;1.53;;;1.43;;
19396;SDS011;9834;48.076;11.878;2023-07-29T03:24:02;2.00;;;1.87;;
19396;SDS011;9834;48.076;11.878;2023-07-29T03:26:33;2.23;;;1.77;;
19396;SDS011;9834;48.076;11.878;2023-07-29T03:29:02;1.30;;;1.20;;
19396;SDS011;9834;48.076;11.878;2023-07-29T03:31:32;1.33;;;1.23;;
19396;SDS011;9834;48.076;11.878;2023-07-29T03:34:02;1.40;;;1.30;;
19396;SDS011;9834;48.076;11.878;2023-07-29T03:36:28;0.87;;;0.87;;
19396;SDS011;9834;48.076;11.878;2023-07-29T03:41:41;2.20;;;1.87;;
19396;SDS011;9834;48.076;11.878;2023-07-29T03:44:08;1.43;;;1.33;;
19396;SDS011;9834;48.076;11.878;2023-07-29T03:46:35;1.90;;;1.60;;
19396;SDS011;9834;48.076;11.878;2023-07-29T03:49:04;2.43;;;1.80;;
19396;SDS011;9834;48.076;11.878;2023-07-29T03:51:30;2.90;;;1.90;;
19396;SDS011;9834;48.076;11.878;2023-07-29T03:53:57;1.77;;;1.67;;
19396;SDS011;9834;48.076;11.878;2023-07-29T03:56:31;1.37;;;1.17;;
19396;SDS011;9834;48.076;11.878;2023-07-29T03:59:02;1.40;;;1.30;;
19396;SDS011;9834;48.076;11.878;2023-07-29T04:01:29;3.13;;;1.70;;
19396;SDS011;9834;48.076;11.878;2023-07-29T04:03:59;1.93;;;1.40;;
19396;SDS011;9834;48.076;11.878;2023-07-29T04:06:38;3.03;;;1.80;;
19396;SDS011;9834;48.076;11.878;2023-07-29T04:09:13;1.50;;;1.37;;
19396;SDS011;9834;48.076;11.878;2023-07-29T04:11:41;1.80;;;1.53;;
19396;SDS011;9834;48.076;11.878;2023-07-29T04:14:12;1.77;;;1.57;;
19396;SDS011;9834;48.076;11.878;2023-07-29T04:16:39;1.60;;;1.50;;
19396;SDS011;9834;48.076;11.878;2023-07-29T04:19:15;1.50;;;1.27;;
19396;SDS011;9834;48.076;11.878;2023-07-29T04:21:41;1.60;;;1.50;;
19396;SDS011;9834;48.076;11.878;2023-07-29T04:24:11;2.70;;;1.60;;
19396;SDS011;9834;48.076;11.878;2023-07-29T04:26:38;1.63;;;1.50;;
19396;SDS011;9834;48.076;11.878;2023-07-29T04:31:48;3.90;;;1.87;;
19396;SDS011;9834;48.076;11.878;2023-07-29T04:34:21;2.30;;;1.67;;
19396;SDS011;9834;48.076;11.878;2023-07-29T04:36:48;2.00;;;1.67;;
19396;SDS011;9834;48.076;11.878;2023-07-29T04:39:15;1.70;;;1.60;;
19396;SDS011;9834;48.076;11.878;2023-07-29T04:41:48;2.07;;;1.50;;
19396;SDS011;9834;48.076;11.878;2023-07-29T04:44:17;2.90;;;1.80;;
19396;SDS011;9834;48.076;11.878;2023-07-29T04:46:53;1.50;;;1.40;;
19396;SDS011;9834;48.076;11.878;2023-07-29T04:49:20;1.40;;;1.30;;
19396;SDS011;9834;48.076;11.878;2023-07-29T04:51:46;1.53;;;1.43;;
19396;SDS011;9834;48.076;11.878;2023-07-29T04:54:13;1.40;;;1.30;;
19396;SDS011;9834;48.076;11.878;2023-07-29T04:56:45;1.77;;;1.67;;
19396;SDS011;9834;48.076;11.878;2023-07-29T04:59:17;2.43;;;1.90;;
19396;SDS011;9834;48.076;11.878;2023-07-29T05:01:44;2.20;;;1.87;;
19396;SDS011;9834;48.076;11.878;2023-07-29T05:04:22;1.80;;;1.63;;
19396;SDS011;9834;48.076;11.878;2023-07-29T05:06:52;1.73;;;1.57;;
19396;SDS011;9834;48.076;11.878;2023-07-29T05:09:26;1.87;;;1.77;;
19396;SDS011;9834;48.076;11.878;2023-07-29T05:11:55;1.60;;;1.50;;
19396;SDS011;9834;48.076;11.878;2023-07-29T05:14:28;2.00;;;1.50;;
19396;SDS011;9834;48.076;11.878;2023-07-29T05:17:11;1.80;;;1.70;;
19396;SDS011;9834;48.076;11.878;2023-07-29T05:19:40;2.07;;;1.87;;
19396;SDS011;9834;48.076;11.878;2023-07-29T05:22:18;3.77;;;2.03;;
19396;SDS011;9834;48.076;11.878;2023-07-29T05:24:46;1.97;;;1.87;;
19396;SDS011;9834;48.076;11.878;2023-07-29T05:27:13;2.00;;;1.90;;
19396;SDS011;9834;48.076;11.878;2023-07-29T05:29:48;2.63;;;2.07;;
19396;SDS011;9834;48.076;11.878;2023-07-29T05:35:19;1.97;;;1.77;;
19396;SDS011;9834;48.076;11.878;2023-07-29T05:37:51;5.93;;;1.73;;
19396;SDS011;9834;48.076;11.878;2023-07-29T05:40:18;2.50;;;2.00;;
19396;SDS011;9834;48.076;11.878;2023-07-29T05:42:45;2.17;;;1.90;;
19396;SDS011;9834;48.076;11.878;2023-07-29T05:45:21;1.70;;;1.60;;
19396;SDS011;9834;48.076;11.878;2023-07-29T05:47:53;1.60;;;1.50;;
19396;SDS011;9834;48.076;11.878;2023-07-29T05:50:20;4.27;;;2.20;;
19396;SDS011;9834;48.076;11.878;2023-07-29T05:52:55;1.57;;;1.47;;
19396;SDS011;9834;48.076;11.878;2023-07-29T05:55:24;2.87;;;1.70;;
19396;SDS011;9834;48.076;11.878;2023-07-29T05:57:54;3.90;;;2.10;;
19396;SDS011;9834;48.076;11.878;2023-07-29T06:00:22;2.03;;;1.70;;
19396;SDS011;9834;48.076;11.878;2023-07-29T06:02:49;1.70;;;1.60;;
19396;SDS011;9834;48.076;11.878;2023-07-29T06:05:17;1.13;;;1.10;;
19396;SDS011;9834;48.076;11.878;2023-07-29T06:07:49;1.57;;;1.40;;
19396;SDS011;9834;48.076;11.878;2023-07-29T06:10:18;4.13;;;1.60;;
19396;SDS011;9834;48.076;11.878;2023-07-29T06:12:45;1.90;;;1.00;;
19396;SDS011;9834;48.076;11.878;2023-07-29T06:15:14;1.53;;;1.27;;
19396;SDS011;9834;48.076;11.878;2023-07-29T06:17:46;3.13;;;1.23;;
19396;SDS011;9834;48.076;11.878;2023-07-29T06:20:22;1.00;;;1.00;;
19396;SDS011;9834;48.076;11.878;2023-07-29T06:22:55;3.30;;;1.23;;
19396;SDS011;9834;48.076;11.878;2023-07-29T06:25:22;2.03;;;1.00;;
19396;SDS011;9834;48.076;11.878;2023-07-29T06:27:51;1.20;;;1.10;;
19396;SDS011;9834;48.076;11.878;2023-07-29T06:30:18;1.10;;;1.00;;
19396;SDS011;9834;48.076;11.878;2023-07-29T06:32:50;1.73;;;1.40;;
19396;SDS011;9834;48.076;11.878;2023-07-29T06:35:24;6.73;;;1.93;;
19396;SDS011;9834;48.076;11.878;2023-07-29T06:37:54;1.50;;;1.33;;
19396;SDS011;9834;48.076;11.878;2023-07-29T06:40:24;1.93;;;1.20;;
19396;SDS011;9834;48.076;11.878;2023-07-29T06:42:51;0.87;;;0.87;;
19396;SDS011;9834;48.076;11.878;2023-07-29T06:45:18;1.20;;;1.03;;
19396;SDS011;9834;48.076;11.878;2023-07-29T06:47:45;1.20;;;1.10;;
19396;SDS011;9834;48.076;11.878;2023-07-29T06:50:14;1.30;;;1.20;;
19396;SDS011;9834;48.076;11.878;2023-07-29T06:52:42;1.53;;;1.43;;
19396;SDS011;9834;48.076;11.878;2023-07-29T06:55:15;1.70;;;1.60;;
19396;SDS011;9834;48.076;11.878;2023-07-29T06:57:42;2.63;;;1.77;;
19396;SDS011;9834;48.076;11.878;2023-07-29T07:00:09;1.87;;;1.53;;
19396;SDS011;9834;48.076;11.878;2023-07-29T07:02:39;1.47;;;1.20;;
19396;SDS011;9834;48.076;11.878;2023-07-29T07:05:09;2.03;;;1.43;;
19396;SDS011;9834;48.076;11.878;2023-07-29T07:07:36;2.03;;;1.50;;
19396;SDS011;9834;48.076;11.878;2023-07-29T07:10:13;2.70;;;1.87;;
19396;SDS011;9834;48.076;11.878;2023-07-29T07:12:40;3.73;;;1.37;;
19396;SDS011;9834;48.076;11.878;2023-07-29T07:15:10;1.20;;;1.10;;
19396;SDS011;9834;48.076;11.878;2023-07-29T07:17:39;2.27;;;1.00;;
19396;SDS011;9834;48.076;11.878;2023-07-29T07:20:09;1.97;;;1.47;;
19396;SDS011;9834;48.076;11.878;2023-07-29T07:22:39;1.43;;;1.33;;
19396;SDS011;9834;48.076;11.878;2023-07-29T07:25:17;1.27;;;1.17;;
19396;SDS011;9834;48.076;11.878;2023-07-29T07:27:56;1.10;;;1.00;;
19396;SDS011;9834;48.076;11.878;2023-07-29T07:30:23;3.37;;;1.50;;
19396;SDS011;9834;48.076;11.878;2023-07-29T07:32:52;4.50;;;1.70;;
19396;SDS011;9834;48.076;11.878;2023-07-29T07:35:24;1.50;;;1.40;;
19396;SDS011;9834;48.076;11.878;2023-07-29T07:37:51;1.80;;;1.70;;
19396;SDS011;9834;48.076;11.878;2023-07-29T07:40:25;1.40;;;1.30;;
19396;SDS011;9834;48.076;11.878;2023-07-29T07:42:54;1.30;;;1.20;;
19396;SDS011;9834;48.076;11.878;2023-07-29T07:45:24;2.40;;;1.67;;
19396;SDS011;9834;48.076;11.878;2023-07-29T07:47:53;1.83;;;1.43;;
19396;SDS011;9834;48.076;11.878;2023-07-29T07:50:28;1.53;;;1.43;;
19396;SDS011;9834;48.076;11.878;2023-07-29T07:53:01;1.13;;;1.03;;
19396;SDS011;9834;48.076;11.878;2023-07-29T07:55:29;1.37;;;1.27;;
19396;SDS011;9834;48.076;11.878;2023-07-29T07:57:56;1.80;;;1.53;;
19396;SDS011;9834;48.076;11.878;2023-07-29T08:00:23;1.30;;;1.20;;
19396;SDS011;9834;48.076;11.878;2023-07-29T08:02:53;2.00;;;1.30;;
19396;SDS011;9834;48.076;11.878;2023-07-29T08:05:20;1.47;;;1.37;;
19396;SDS011;9834;48.076;11.878;2023-07-29T08:07:56;3.63;;;1.87;;
19396;SDS011;9834;48.076;11.878;2023-07-29T08:10:23;1.60;;;1.50;;
19396;SDS011;9834;48.076;11.878;2023-07-29T08:12:52;3.33;;;1.93;;
19396;SDS011;9834;48.076;11.878;2023-07-29T08:15:19;3.20;;;1.83;;
19396;SDS011;9834;48.076;11.878;2023-07-29T08:17:46;1.20;;;1.20;;
19396;SDS011;9834;48.076;11.878;2023-07-29T08:20:12;1.30;;;1.20;;
19396;SDS011;9834;48.076;11.878;2023-07-29T08:22:47;2.20;;;2.00;;
19396;SDS011;9834;48.076;11.878;2023-07-29T08:25:13;2.60;;;1.80;;
19396;SDS011;9834;48.076;11.878;2023-07-29T08:27:43;4.10;;;1.73;;
19396;SDS011;9834;48.076;11.878;2023-07-29T08:30:28;2.23;;;1.40;;
19396;SDS011;9834;48.076;11.878;2023-07-29T08:32:54;1.57;;;1.47;;
19396;SDS011;9834;48.076;11.878;2023-07-29T08:35:21;1.70;;;1.60;;
19396;SDS011;9834;48.076;11.878;2023-07-29T08:37:48;1.60;;;1.50;;
19396;SDS011;9834;48.076;11.878;2023-07-29T08:40:25;2.10;;;1.57;;
19396;SDS011;9834;48.076;11.878;2023-07-29T08:42:55;1.83;;;1.67;;
19396;SDS011;9834;48.076;11.878;2023-07-29T08:45:27;1.13;;;1.13;;
19396;SDS011;9834;48.076;11.878;2023-07-29T08:47:56;2.23;;;1.73;;
19396;SDS011;9834;48.076;11.878;2023-07-29T08:50:28;1.20;;;1.20;;
19396;SDS011;9834;48.076;11.878;2023-07-29T08:52:58;2.97;;;1.95;;
19396;SDS011;9834;48.076;11.878;2023-07-29T08:55:28;1.23;;;1.20;;
19396;SDS011;9834;48.076;11.878;2023-07-29T08:58:04;1.20;;;1.10;;
19396;SDS011;9834;48.076;11.878;2023-07-29T09:00:40;1.15;;;1.05;;
19396;SDS011;9834;48.076;11.878;2023-07-29T09:03:10;1.90;;;1.48;;
19396;SDS011;9834;48.076;11.878;2023-07-29T09:05:37;1.73;;;1.33;;
19396;SDS011;9834;48.076;11.878;2023-07-29T09:08:13;1.45;;;1.35;;
19396;SDS011;9834;48.076;11.878;2023-07-29T09:10:43;1.23;;;0.90;;
19396;SDS011;9834;48.076;11.878;2023-07-29T09:13:30;1.27;;;1.10;;
19396;SDS011;9834;48.076;11.878;2023-07-29T09:15:58;3.17;;;1.10;;
19396;SDS011;9834;48.076;11.878;2023-07-29T09:18:28;2.65;;;1.30;;
19396;SDS011;9834;48.076;11.878;2023-07-29T09:20:59;1.38;;;1.27;;
19396;SDS011;9834;48.076;11.878;2023-07-29T09:23:27;1.50;;;1.40;;
19396;SDS011;9834;48.076;11.878;2023-07-29T09:26:00;1.88;;;1.30;;
19396;SDS011;9834;48.076;11.878;2023-07-29T09:28:32;1.10;;;0.93;;
19396;SDS011;9834;48.076;11.878;2023-07-29T09:31:10;1.77;;;1.50;;
19396;SDS011;9834;48.076;11.878;2023-07-29T09:33:55;1.25;;;1.05;;
19396;SDS011;9834;48.076;11.878;2023-07-29T09:36:23;5.18;;;1.70;;
19396;SDS011;9834;48.076;11.878;2023-07-29T09:39:04;1.95;;;1.65;;
19396;SDS011;9834;48.076;11.878;2023-07-29T09:41:37;2.03;;;1.30;;
19396;SDS011;9834;48.076;11.878;2023-07-29T09:44:11;1.10;;;1.00;;
19396;SDS011;9834;48.076;11.878;2023-07-29T09:47:07;1.63;;;1.45;;
19396;SDS011;9834;48.076;11.878;2023-07-29T09:49:53;1.83;;;1.23;;
19396;SDS011;9834;48.076;11.878;2023-07-29T09:52:25;1.17;;;1.10;;
19396;SDS011;9834;48.076;11.878;2023-07-29T09:55:19;1.00;;;1.00;;
19396;SDS011;9834;48.076;11.878;2023-07-29T09:57:56;1.83;;;1.52;;
19396;SDS011;9834;48.076;11.878;2023-07-29T10:00:28;1.63;;;1.20;;
19396;SDS011;9834;48.076;11.878;2023-07-29T10:03:00;1.38;;;1.27;;
19396;SDS011;9834;48.076;11.878;2023-07-29T10:05:29;1.42;;;1.33;;
19396;SDS011;9834;48.076;11.878;2023-07-29T10:07:59;1.15;;;1.02;;
19396;SDS011;9834;48.076;11.878;2023-07-29T10:10:27;2.22;;;1.48;;
19396;SDS011;9834;48.076;11.878;2023-07-29T10:13:00;1.27;;;1.13;;
19396;SDS011;9834;48.076;11.878;2023-07-29T10:15:27;1.10;;;1.00;;
19396;SDS011;9834;48.076;11.878;2023-07-29T10:18:02;0.90;;;0.90;;
19396;SDS011;9834;48.076;11.878;2023-07-29T10:20:37;2.35;;;2.00;;
19396;SDS011;9834;48.076;11.878;2023-07-29T10:23:05;1.35;;;1.25;;
19396;SDS011;9834;48.076;11.878;2023-07-29T10:25:45;3.35;;;1.80;;
19396;SDS011;9834;48.076;11.878;2023-07-29T10:28:21;2.65;;;1.63;;
19396;SDS011;9834;48.076;11.878;2023-07-29T10:30:53;1.80;;;1.38;;
19396;SDS011;9834;48.076;11.878;2023-07-29T10:33:26;1.83;;;1.73;;
19396;SDS011;9834;48.076;11.878;2023-07-29T10:35:59;1.10;;;1.10;;
19396;SDS011;9834;48.076;11.878;2023-07-29T10:38:36;3.53;;;1.40;;
19396;SDS011;9834;48.076;11.878;2023-07-29T10:41:09;1.48;;;1.30;;
19396;SDS011;9834;48.076;11.878;2023-07-29T10:43:41;1.25;;;1.15;;
19396;SDS011;9834;48.076;11.878;2023-07-29T10:46:18;1.52;;;1.40;;
19396;SDS011;9834;48.076;11.878;2023-07-29T10:48:53;1.50;;;1.40;;
19396;SDS011;9834;48.076;11.878;2023-07-29T10:51:37;1.10;;;1.00;;
19396;SDS011;9834;48.076;11.878;2023-07-29T10:54:09;1.77;;;1.67;;
19396;SDS011;9834;48.076;11.878;2023-07-29T10:56:39;1.67;;;1.38;;
19396;SDS011;9834;48.076;11.878;2023-07-29T10:59:33;1.48;;;1.35;;
19396;SDS011;9834;48.076;11.878;2023-07-29T11:02:02;0.82;;;0.82;;
19396;SDS011;9834;48.076;11.878;2023-07-29T11:04:47;0.98;;;0.95;;
19396;SDS011;9834;48.076;11.878;2023-07-29T11:07:22;2.15;;;1.20;;
19396;SDS011;9834;48.076;11.878;2023-07-29T11:12:38;1.02;;;1.00;;
19396;SDS011;9834;48.076;11.878;2023-07-29T11:15:14;3.03;;;1.80;;
19396;SDS011;9834;48.076;11.878;2023-07-29T11:17:48;1.20;;;0.93;;
19396;SDS011;9834;48.076;11.878;2023-07-29T11:20:18;1.48;;;1.25;;
19396;SDS011;9834;48.076;11.878;2023-07-29T11:22:49;2.17;;;1.42;;
19396;SDS011;9834;48.076;11.878;2023-07-29T11:25:20;1.38;;;1.27;;
19396;SDS011;9834;48.076;11.878;2023-07-29T11:27:48;2.28;;;1.45;;
19396;SDS011;9834;48.076;11.878;2023-07-29T11:30:23;1.60;;;1.38;;
19396;SDS011;9834;48.076;11.878;2023-07-29T11:33:01;1.67;;;1.13;;
19396;SDS011;9834;48.076;11.878;2023-07-29T11:35:32;1.30;;;1.20;;
19396;SDS011;9834;48.076;11.878;2023-07-29T11:38:06;3.70;;;1.58;;
19396;SDS011;9834;48.076;11.878;2023-07-29T11:40:53;1.33;;;1.23;;
19396;SDS011;9834;48.076;11.878;2023-07-29T11:43:24;1.80;;;1.42;;
19396;SDS011;9834;48.076;11.878;2023-07-29T11:45:54;1.20;;;1.10;;
19396;SDS011;9834;48.076;11.878;2023-07-29T11:48:27;1.50;;;1.40;;
19396;SDS011;9834;48.076;11.878;2023-07-29T11:51:01;1.27;;;1.17;;
19396;SDS011;9834;48.076;11.878;2023-07-29T11:53:31;2.20;;;1.30;;
19396;SDS011;9834;48.076;11.878;2023-07-29T11:55:58;1.17;;;1.17;;
19396;SDS011;9834;48.076;11.878;2023-07-29T11:58:25;1.50;;;1.00;;
19396;SDS011;9834;48.076;11.878;2023-07-29T12:00:52;1.50;;;1.02;;
19396;SDS011;9834;48.076;11.878;2023-07-29T12:03:22;0.82;;;0.73;;
19396;SDS011;9834;48.076;11.878;2023-07-29T12:05:58;0.90;;;0.90;;
19396;SDS011;9834;48.076;11.878;2023-07-29T12:08:30;1.20;;;0.82;;
19396;SDS011;9834;48.076;11.878;2023-07-29T12:10:57;0.77;;;0.77;;
19396;SDS011;9834;48.076;11.878;2023-07-29T12:13:24;1.10;;;0.82;;
19396;SDS011;9834;48.076;11.878;2023-07-29T12:15:52;0.73;;;0.73;;
19396;SDS011;9834;48.076;11.878;2023-07-29T12:18:29;1.08;;;1.00;;
19396;SDS011;9834;48.076;11.878;2023-07-29T12:20:57;1.45;;;1.30;;
19396;SDS011;9834;48.076;11.878;2023-07-29T12:23:28;6.10;;;1.35;;
19396;SDS011;9834;48.076;11.878;2023-07-29T12:25:58;0.68;;;0.68;;
19396;SDS011;9834;48.076;11.878;2023-07-29T12:28:26;0.95;;;0.95;;
19396;SDS011;9834;48.076;11.878;2023-07-29T12:30:53;1.40;;;0.90;;
19396;SDS011;9834;48.076;11.878;2023-07-29T12:33:34;1.10;;;1.00;;
19396;SDS011;9834;48.076;11.878;2023-07-29T12:36:06;2.90;;;1.02;;
19396;SDS011;9834;48.076;11.878;2023-07-29T12:38:35;1.52;;;1.35;;
19396;SDS011;9834;48.076;11.878;2023-07-29T12:41:08;1.23;;;1.00;;
19396;SDS011;9834;48.076;11.878;2023-07-29T12:43:44;0.80;;;0.80;;
19396;SDS011;9834;48.076;11.878;2023-07-29T12:46:19;7.47;;;1.15;;
19396;SDS011;9834;48.076;11.878;2023-07-29T12:48:46;1.42;;;1.30;;
19396;SDS011;9834;48.076;11.878;2023-07-29T12:51:13;0.80;;;0.80;;
19396;SDS011;9834;48.076;11.878;2023-07-29T12:53:41;1.15;;;1.05;;
19396;SDS011;9834;48.076;11.878;2023-07-29T12:58:58;1.17;;;0.90;;
19396;SDS011;9834;48.076;11.878;2023-07-29T13:01:27;1.10;;;1.00;;
19396;SDS011;9834;48.076;11.878;2023-07-29T13:04:00;1.63;;;1.52;;
19396;SDS011;9834;48.076;11.878;2023-07-29T13:06:39;1.40;;;1.30;;
19396;SDS011;9834;48.076;11.878;2023-07-29T13:09:10;12.18;;;1.10;;
19396;SDS011;9834;48.076;11.878;2023-07-29T13:11:40;1.50;;;1.20;;
19396;SDS011;9834;48.076;11.878;2023-07-29T13:14:13;0.95;;;0.90;;
19396;SDS011;9834;48.076;11.878;2023-07-29T13:16:40;1.75;;;1.65;;
19396;SDS011;9834;48.076;11.878;2023-07-29T13:19:09;0.80;;;0.80;;
19396;SDS011;9834;48.076;11.878;2023-07-29T13:21:36;1.30;;;1.17;;
19396;SDS011;9834;48.076;11.878;2023-07-29T13:24:03;1.00;;;0.98;;
19396;SDS011;9834;48.076;11.878;2023-07-29T13:26:34;0.80;;;0.80;;
19396;SDS011;9834;48.076;11.878;2023-07-29T13:29:04;7.13;;;1.27;;
19396;SDS011;9834;48.076;11.878;2023-07-29T13:31:31;0.93;;;0.88;;
19396;SDS011;9834;48.076;11.878;2023-07-29T13:33:57;1.00;;;0.90;;
19396;SDS011;9834;48.076;11.878;2023-07-29T13:36:24;5.65;;;1.38;;
19396;SDS011;9834;48.076;11.878;2023-07-29T13:38:54;2.58;;;1.27;;
19396;SDS011;9834;48.076;11.878;2023-07-29T13:41:27;2.25;;;1.00;;
19396;SDS011;9834;48.076;11.878;2023-07-29T13:43:59;1.33;;;1.23;;
19396;SDS011;9834;48.076;11.878;2023-07-29T13:46:26;1.23;;;1.17;;
19396;SDS011;9834;48.076;11.878;2023-07-29T13:48:53;2.13;;;1.33;;
19396;SDS011;9834;48.076;11.878;2023-07-29T13:51:22;1.42;;;1.33;;
19396;SDS011;9834;48.076;11.878;2023-07-29T13:53:49;2.58;;;1.60;;
19396;SDS011;9834;48.076;11.878;2023-07-29T13:56:19;1.95;;;1.73;;
19396;SDS011;9834;48.076;11.878;2023-07-29T14:01:28;1.73;;;1.40;;
19396;SDS011;9834;48.076;11.878;2023-07-29T14:03:58;2.17;;;1.60;;
19396;SDS011;9834;48.076;11.878;2023-07-29T14:06:25;3.47;;;1.83;;
19396;SDS011;9834;48.076;11.878;2023-07-29T14:08:52;1.75;;;1.65;;
19396;SDS011;9834;48.076;11.878;2023-07-29T14:11:22;1.98;;;1.25;;
19396;SDS011;9834;48.076;11.878;2023-07-29T14:13:52;1.40;;;1.30;;
19396;SDS011;9834;48.076;11.878;2023-07-29T14:16:19;1.98;;;1.70;;
19396;SDS011;9834;48.076;11.878;2023-07-29T14:18:49;2.08;;;1.77;;
19396;SDS011;9834;48.076;11.878;2023-07-29T14:21:19;2.00;;;1.40;;
19396;SDS011;9834;48.076;11.878;2023-07-29T14:23:46;2.17;;;1.42;;
19396;SDS011;9834;48.076;11.878;2023-07-29T14:26:16;1.08;;;1.08;;
19396;SDS011;9834;48.076;11.878;2023-07-29T14:28:44;1.48;;;1.38;;
19396;SDS011;9834;48.076;11.878;2023-07-29T14:31:11;5.28;;;1.70;;
19396;SDS011;9834;48.076;11.878;2023-07-29T14:33:41;3.55;;;2.53;;
19396;SDS011;9834;48.076;11.878;2023-07-29T14:36:16;2.05;;;1.65;;
19396;SDS011;9834;48.076;11.878;2023-07-29T14:38:43;1.40;;;1.30;;
19396;SDS011;9834;48.076;11.878;2023-07-29T14:41:12;3.55;;;1.55;;
19396;SDS011;9834;48.076;11.878;2023-07-29T14:43:45;2.50;;;1.75;;
19396;SDS011;9834;48.076;11.878;2023-07-29T14:46:12;1.98;;;1.60;;
19396;SDS011;9834;48.076;11.878;2023-07-29T14:48:43;1.67;;;1.58;;
19396;SDS011;9834;48.076;11.878;2023-07-29T14:51:13;1.85;;;1.45;;
19396;SDS011;9834;48.076;11.878;2023-07-29T14:53:47;2.33;;;1.83;;
19396;SDS011;9834;48.076;11.878;2023-07-29T14:56:14;1.85;;;1.73;;
19396;SDS011;9834;48.076;11.878;2023-07-29T14:58:42;1.35;;;1.27;;
19396;SDS011;9834;48.076;11.878;2023-07-29T15:01:16;1.58;;;1.48;;
19396;SDS011;9834;48.076;11.878;2023-07-29T15:03:45;2.60;;;2.25;;
19396;SDS011;9834;48.076;11.878;2023-07-29T15:06:26;2.22;;;2.08;;
19396;SDS011;9834;48.076;11.878;2023-07-29T15:08:53;2.05;;;1.77;;
19396;SDS011;9834;48.076;11.878;2023-07-29T15:11:22;3.45;;;2.42;;
19396;SDS011;9834;48.076;11.878;2023-07-29T15:13:58;2.20;;;1.73;;
19396;SDS011;9834;48.076;11.878;2023-07-29T15:16:29;2.42;;;2.22;;
19396;SDS011;9834;48.076;11.878;2023-07-29T15:19:02;4.40;;;2.42;;
19396;SDS011;9834;48.076;11.878;2023-07-29T15:21:32;2.35;;;2.15;;
19396;SDS011;9834;48.076;11.878;2023-07-29T15:24:02;3.90;;;2.38;;
19396;SDS011;9834;48.076;11.878;2023-07-29T15:26:29;2.35;;;2.08;;
19396;SDS011;9834;48.076;11.878;2023-07-29T15:28:59;3.45;;;2.38;;